createdAt,value
2018-12-13T00:01:19.713Z,5.43
2018-12-13T00:03:48.846Z,4.80
2018-12-13T00:06:17.871Z,5.00
2018-12-13T00:08:46.950Z,4.83
2018-12-13T00:11:16.185Z,4.87
2018-12-13T00:13:45.228Z,4.97
2018-12-13T00:16:14.392Z,4.20
2018-12-13T00:18:43.385Z,4.90
2018-12-13T00:21:12.436Z,4.70
2018-12-13T00:23:41.538Z,5.03
2018-12-13T00:26:10.601Z,4.57
2018-12-13T00:28:40.466Z,4.77
2018-12-13T00:31:10.111Z,4.40
2018-12-13T00:33:39.443Z,4.60
2018-12-13T00:36:08.487Z,4.67
2018-12-13T00:38:37.671Z,4.53
2018-12-13T00:41:06.704Z,5.20
2018-12-13T00:43:35.983Z,5.77
2018-12-13T00:46:05.175Z,5.93
2018-12-13T00:48:34.287Z,5.57
2018-12-13T00:51:03.518Z,5.53
2018-12-13T00:53:32.665Z,5.03
2018-12-13T00:56:01.666Z,5.80
2018-12-13T00:58:30.770Z,5.27
2018-12-13T01:01:02.848Z,4.23
2018-12-13T01:03:32.003Z,4.20
2018-12-13T01:06:01.025Z,3.73
2018-12-13T01:08:30.725Z,3.80
2018-12-13T01:10:59.766Z,4.03
2018-12-13T01:13:28.932Z,4.13
2018-12-13T01:15:58.620Z,4.17
2018-12-13T01:18:27.625Z,3.60
2018-12-13T01:20:56.869Z,4.00
2018-12-13T01:23:26.062Z,4.10
2018-12-13T01:25:55.107Z,3.97
2018-12-13T01:28:24.222Z,3.90
2018-12-13T01:30:53.903Z,4.03
2018-12-13T01:33:23.067Z,4.27
2018-12-13T01:35:52.212Z,3.63
2018-12-13T01:38:21.309Z,4.20
2018-12-13T01:40:51.274Z,4.07
2018-12-13T01:43:20.423Z,3.90
2018-12-13T01:45:49.492Z,3.97
2018-12-13T01:48:18.640Z,3.97
2018-12-13T01:50:47.869Z,3.43
2018-12-13T01:53:17.130Z,3.80
2018-12-13T01:55:46.172Z,3.90
2018-12-13T01:58:15.385Z,4.13
2018-12-13T02:00:44.684Z,3.60
2018-12-13T02:03:13.887Z,3.77
2018-12-13T02:05:42.968Z,3.43
2018-12-13T02:08:12.043Z,3.63
2018-12-13T02:10:41.216Z,3.73
2018-12-13T02:13:11.180Z,4.17
2018-12-13T02:15:41.732Z,3.63
2018-12-13T02:18:11.781Z,4.27
2018-12-13T02:20:41.893Z,4.50
2018-12-13T02:23:10.916Z,5.00
2018-12-13T02:25:40.540Z,4.60
2018-12-13T02:28:09.584Z,4.40
2018-12-13T02:30:38.867Z,4.80
2018-12-13T02:33:08.845Z,5.20
2018-12-13T02:35:38.991Z,4.53
2018-12-13T02:38:08.242Z,4.80
2018-12-13T02:40:37.519Z,5.03
2018-12-13T02:43:07.193Z,4.97
2018-12-13T02:45:36.329Z,5.00
2018-12-13T02:48:05.584Z,4.63
2018-12-13T02:50:34.964Z,5.27
2018-12-13T02:53:04.137Z,4.70
2018-12-13T02:55:33.308Z,5.90
2018-12-13T02:58:02.372Z,5.33
2018-12-13T03:00:31.798Z,5.10
2018-12-13T03:03:01.348Z,5.10
2018-12-13T03:05:30.873Z,5.00
2018-12-13T03:08:00.771Z,4.47
2018-12-13T03:10:29.983Z,4.80
2018-12-13T03:12:59.115Z,4.50
2018-12-13T03:15:28.950Z,5.70
2018-12-13T03:17:57.988Z,4.70
2018-12-13T03:20:27.919Z,5.20
2018-12-13T03:22:59.152Z,4.47
2018-12-13T03:25:30.311Z,4.60
2018-12-13T03:28:01.260Z,4.37
2018-12-13T03:30:32.623Z,4.60
2018-12-13T03:33:03.369Z,4.80
2018-12-13T03:35:35.849Z,5.27
2018-12-13T03:38:05.111Z,5.00
2018-12-13T03:40:34.392Z,4.73
2018-12-13T03:43:03.694Z,5.40
2018-12-13T03:45:33.010Z,5.23
2018-12-13T03:48:02.954Z,4.67
2018-12-13T03:50:32.808Z,5.33
2018-12-13T03:53:03.435Z,5.27
2018-12-13T03:55:32.616Z,5.70
2018-12-13T03:58:01.650Z,5.17
2018-12-13T04:00:30.830Z,6.07
2018-12-13T04:03:00.058Z,5.73
2018-12-13T04:05:29.914Z,6.00
2018-12-13T04:07:58.984Z,5.67
2018-12-13T04:10:28.171Z,5.53
2018-12-13T04:12:57.524Z,5.13
2018-12-13T04:15:26.873Z,6.03
2018-12-13T04:17:56.153Z,5.80
2018-12-13T04:20:25.195Z,6.13
2018-12-13T04:22:55.006Z,5.70
2018-12-13T04:25:25.316Z,5.80
2018-12-13T04:27:54.375Z,6.43
2018-12-13T04:30:23.444Z,6.83
2018-12-13T04:32:52.558Z,6.77
2018-12-13T04:35:22.217Z,7.10
2018-12-13T04:37:51.315Z,6.73
2018-12-13T04:40:20.652Z,7.00
2018-12-13T04:42:49.839Z,6.60
2018-12-13T04:45:18.984Z,6.50
2018-12-13T04:47:48.547Z,7.03
2018-12-13T04:50:17.866Z,7.47
2018-12-13T04:52:47.028Z,6.30
2018-12-13T04:55:16.124Z,6.50
2018-12-13T04:57:45.185Z,6.90
2018-12-13T05:00:14.317Z,6.63
2018-12-13T05:02:43.385Z,7.83
2018-12-13T05:05:13.070Z,6.80
2018-12-13T05:07:42.242Z,7.00
2018-12-13T05:10:21.308Z,7.53
2018-12-13T05:12:50.443Z,7.40
2018-12-13T05:15:20.116Z,8.57
2018-12-13T05:17:49.531Z,7.80
2018-12-13T05:20:18.664Z,7.93
2018-12-13T05:22:48.241Z,7.87
2018-12-13T05:25:17.385Z,7.57
2018-12-13T05:27:46.513Z,7.67
2018-12-13T05:30:15.632Z,8.57
2018-12-13T05:32:45.588Z,7.80
2018-12-13T05:35:14.768Z,7.90
2018-12-13T05:37:48.244Z,7.37
2018-12-13T05:40:15.553Z,7.33
2018-12-13T05:42:44.659Z,7.83
2018-12-13T05:45:14.362Z,7.93
2018-12-13T05:47:43.484Z,7.80
2018-12-13T05:50:12.575Z,7.70
2018-12-13T05:52:41.672Z,7.90
2018-12-13T05:55:10.749Z,7.30
2018-12-13T05:57:40.616Z,7.93
2018-12-13T06:00:10.929Z,7.00
2018-12-13T06:02:40.129Z,8.20
2018-12-13T06:05:15.779Z,8.03
2018-12-13T06:07:44.839Z,7.27
2018-12-13T06:10:13.888Z,7.23
2018-12-13T06:12:42.976Z,7.50
2018-12-13T06:15:12.245Z,7.07
2018-12-13T06:17:41.310Z,6.77
2018-12-13T06:20:10.419Z,7.03
2018-12-13T06:22:39.720Z,7.00
2018-12-13T06:25:09.045Z,7.00
2018-12-13T06:27:38.525Z,7.60
2018-12-13T06:30:08.145Z,7.43
2018-12-13T06:32:37.343Z,7.43
2018-12-13T06:35:07.136Z,7.87
2018-12-13T06:37:36.322Z,7.67
2018-12-13T06:40:05.891Z,8.00
2018-12-13T06:42:35.424Z,7.40
2018-12-13T06:45:06.299Z,7.70
2018-12-13T06:47:35.372Z,7.93
2018-12-13T06:50:05.555Z,8.07
2018-12-13T06:52:34.726Z,7.80
2018-12-13T06:55:03.956Z,7.67
2018-12-13T06:57:33.036Z,8.07
2018-12-13T07:00:02.090Z,7.73
2018-12-13T07:02:31.240Z,8.23
2018-12-13T07:05:00.365Z,7.90
2018-12-13T07:07:29.569Z,8.10
2018-12-13T07:09:58.710Z,9.20
2018-12-13T07:12:27.822Z,8.33
2018-12-13T07:14:57.058Z,8.67
2018-12-13T07:17:26.143Z,8.40
2018-12-13T07:19:55.192Z,8.37
2018-12-13T07:22:24.547Z,8.30
2018-12-13T07:24:53.845Z,8.30
2018-12-13T07:27:23.168Z,8.33
2018-12-13T07:29:52.347Z,7.30
2018-12-13T07:32:21.513Z,8.23
2018-12-13T07:34:50.695Z,8.87
2018-12-13T07:37:19.754Z,8.70
2018-12-13T07:39:48.853Z,9.20
2018-12-13T07:42:17.875Z,8.83
2018-12-13T07:44:46.918Z,8.90
2018-12-13T07:47:15.999Z,8.47
2018-12-13T07:49:45.064Z,8.80
2018-12-13T07:52:14.172Z,8.83
2018-12-13T07:54:43.366Z,9.10
2018-12-13T07:57:12.465Z,8.97
2018-12-13T07:59:41.551Z,9.07
2018-12-13T08:02:10.681Z,9.20
2018-12-13T08:04:40.388Z,8.67
2018-12-13T08:07:09.525Z,9.13
2018-12-13T08:09:39.151Z,9.50
2018-12-13T08:12:08.224Z,9.20
2018-12-13T08:14:37.261Z,9.90
2018-12-13T08:17:06.335Z,8.83
2018-12-13T08:19:35.413Z,8.80
2018-12-13T08:22:05.684Z,9.00
2018-12-13T08:24:34.685Z,8.87
2018-12-13T08:27:04.108Z,8.13
2018-12-13T08:29:33.213Z,9.17
2018-12-13T08:32:02.285Z,9.10
2018-12-13T08:34:32.038Z,9.77
2018-12-13T08:37:01.143Z,10.83
2018-12-13T08:39:30.267Z,10.63
2018-12-13T08:41:59.413Z,9.90
2018-12-13T08:44:28.487Z,9.07
2018-12-13T08:46:57.566Z,9.77
2018-12-13T08:49:26.677Z,8.33
2018-12-13T08:51:55.781Z,9.70
2018-12-13T08:54:24.796Z,9.97
2018-12-13T08:56:53.817Z,9.40
2018-12-13T08:59:22.825Z,9.27
2018-12-13T09:01:52.828Z,9.60
2018-12-13T09:04:23.087Z,9.90
2018-12-13T09:06:52.941Z,9.80
2018-12-13T09:09:21.980Z,10.10
2018-12-13T09:11:51.110Z,8.10
2018-12-13T09:14:20.232Z,8.67
2018-12-13T09:16:49.393Z,9.23
2018-12-13T09:19:18.640Z,9.33
2018-12-13T09:21:48.642Z,9.20
2018-12-13T09:24:17.652Z,8.80
2018-12-13T09:26:46.742Z,8.50
2018-12-13T09:29:15.836Z,9.13
2018-12-13T09:31:44.908Z,8.77
2018-12-13T09:34:14.210Z,8.93
2018-12-13T09:36:43.315Z,7.43
2018-12-13T09:39:12.417Z,7.93
2018-12-13T09:41:41.621Z,8.43
2018-12-13T09:44:17.055Z,7.57
2018-12-13T09:46:47.267Z,8.23
2018-12-13T09:49:16.330Z,8.57
2018-12-13T09:51:45.383Z,8.17
2018-12-13T09:54:14.491Z,8.20
2018-12-13T09:56:43.581Z,7.93
2018-12-13T09:59:12.698Z,7.97
2018-12-13T10:01:42.263Z,8.67
2018-12-13T10:04:11.354Z,8.10
2018-12-13T10:06:40.511Z,9.33
2018-12-13T10:09:10.157Z,8.50
2018-12-13T10:11:39.995Z,8.50
2018-12-13T10:14:09.182Z,8.30
2018-12-13T10:16:38.457Z,8.10
2018-12-13T10:19:07.513Z,8.33
2018-12-13T10:21:36.693Z,7.90
2018-12-13T10:24:05.881Z,7.97
2018-12-13T10:26:35.107Z,8.10
2018-12-13T10:29:04.332Z,7.20
2018-12-13T10:31:33.495Z,7.50
2018-12-13T10:34:02.563Z,8.33
2018-12-13T10:36:31.625Z,8.77
2018-12-13T10:39:00.885Z,8.30
2018-12-13T10:41:29.929Z,7.67
2018-12-13T10:43:59.549Z,8.53
2018-12-13T10:46:28.597Z,8.83
2018-12-13T10:48:57.653Z,8.40
2018-12-13T10:51:26.708Z,8.83
2018-12-13T10:53:55.883Z,8.97
2018-12-13T10:56:24.967Z,8.73
2018-12-13T10:58:54.246Z,7.40
2018-12-13T11:01:28.671Z,7.70
2018-12-13T11:03:58.602Z,8.70
2018-12-13T11:06:27.669Z,7.43
2018-12-13T11:08:59.573Z,8.23
2018-12-13T11:11:28.600Z,8.40
2018-12-13T11:13:57.674Z,8.27
2018-12-13T11:16:26.801Z,8.13
2018-12-13T11:18:55.965Z,8.63
2018-12-13T11:21:25.013Z,8.43
2018-12-13T11:23:54.062Z,8.80
2018-12-13T11:26:23.075Z,8.13
2018-12-13T11:30:16.928Z,8.00
2018-12-13T11:32:45.965Z,7.57
2018-12-13T11:35:15.213Z,8.20
2018-12-13T11:37:44.300Z,8.73
2018-12-13T11:40:13.931Z,9.50
2018-12-13T11:42:43.767Z,8.63
2018-12-13T11:45:12.832Z,8.87
2018-12-13T11:47:41.936Z,8.73
2018-12-13T11:50:10.984Z,8.20
2018-12-13T11:52:40.738Z,8.07
2018-12-13T11:55:52.640Z,7.73
2018-12-13T11:58:22.155Z,7.27
2018-12-13T12:00:51.197Z,7.07
2018-12-13T12:03:20.302Z,7.27
2018-12-13T12:05:49.803Z,6.90
2018-12-13T12:08:19.002Z,7.43
2018-12-13T12:10:48.436Z,8.20
2018-12-13T12:13:17.479Z,9.07
2018-12-13T12:15:47.253Z,10.13
2018-12-13T12:18:16.352Z,10.40
2018-12-13T12:20:45.392Z,8.47
2018-12-13T12:23:15.170Z,6.17
2018-12-13T12:25:44.271Z,6.67
2018-12-13T12:28:13.356Z,7.13
2018-12-13T12:30:42.758Z,6.63
2018-12-13T12:33:11.833Z,6.20
2018-12-13T12:35:40.971Z,6.20
2018-12-13T12:38:10.080Z,6.00
2018-12-13T12:40:39.568Z,6.30
2018-12-13T12:43:08.623Z,6.57
2018-12-13T12:45:38.356Z,7.07
2018-12-13T12:48:07.551Z,7.70
2018-12-13T12:50:36.792Z,7.33
2018-12-13T12:53:06.296Z,6.67
2018-12-13T12:55:35.389Z,7.00
2018-12-13T12:58:04.546Z,7.07
2018-12-13T13:00:33.579Z,7.20
2018-12-13T13:03:02.737Z,6.93
2018-12-13T13:05:32.338Z,6.70
2018-12-13T13:08:01.486Z,7.47
2018-12-13T13:10:30.535Z,6.87
2018-12-13T13:12:59.655Z,7.73
2018-12-13T13:15:28.735Z,7.37
2018-12-13T13:17:57.906Z,7.67
2018-12-13T13:20:26.939Z,7.97
2018-12-13T13:22:56.131Z,7.80
2018-12-13T13:25:25.206Z,7.07
2018-12-13T13:27:54.450Z,7.23
2018-12-13T13:30:23.577Z,7.57
2018-12-13T13:32:52.664Z,7.37
2018-12-13T13:35:22.243Z,7.83
2018-12-13T13:37:51.408Z,7.50
2018-12-13T13:40:20.525Z,7.73
2018-12-13T13:42:51.030Z,8.37
2018-12-13T13:45:20.225Z,8.77
2018-12-13T13:47:49.956Z,9.17
2018-12-13T13:50:19.234Z,10.43
2018-12-13T13:52:48.446Z,9.43
2018-12-13T13:55:18.185Z,12.33
2018-12-13T13:57:47.630Z,11.23
2018-12-13T14:00:16.861Z,9.83
2018-12-13T14:02:46.110Z,8.07
2018-12-13T14:05:15.320Z,8.10
2018-12-13T14:07:44.375Z,8.27
2018-12-13T14:10:13.444Z,7.97
2018-12-13T14:12:42.672Z,8.80
2018-12-13T14:15:11.790Z,10.87
2018-12-13T14:17:40.911Z,9.30
2018-12-13T14:20:12.614Z,9.20
2018-12-13T14:22:41.716Z,8.87
2018-12-13T14:25:12.023Z,8.63
2018-12-13T14:27:42.120Z,8.50
2018-12-13T14:30:11.363Z,8.30
2018-12-13T14:32:40.884Z,8.73
2018-12-13T14:35:09.924Z,8.43
2018-12-13T14:37:39.341Z,8.27
2018-12-13T14:40:09.144Z,7.77
2018-12-13T14:42:38.673Z,8.27
2018-12-13T14:45:07.960Z,9.10
2018-12-13T14:47:37.098Z,8.80
2018-12-13T14:50:07.452Z,8.63
2018-12-13T14:52:37.258Z,8.77
2018-12-13T14:55:06.588Z,8.83
2018-12-13T14:57:35.792Z,9.03
2018-12-13T15:00:07.536Z,8.97
2018-12-13T15:02:38.520Z,9.43
2018-12-13T15:05:08.812Z,10.50
2018-12-13T15:07:38.804Z,9.80
2018-12-13T15:10:08.807Z,10.97
2018-12-13T15:12:39.875Z,11.90
2018-12-13T15:15:09.036Z,11.27
2018-12-13T15:17:39.890Z,11.67
2018-12-13T15:20:09.104Z,12.63
2018-12-13T15:22:38.580Z,11.53
2018-12-13T15:25:08.471Z,12.03
2018-12-13T15:27:37.663Z,12.90
2018-12-13T15:30:08.581Z,12.70
2018-12-13T15:32:37.655Z,12.33
2018-12-13T15:35:07.004Z,17.40
2018-12-13T15:37:36.556Z,15.87
2018-12-13T15:40:07.283Z,16.47
2018-12-13T15:42:36.463Z,12.57
2018-12-13T15:45:06.907Z,10.50
2018-12-13T15:47:35.987Z,9.77
2018-12-13T15:50:05.896Z,9.47
2018-12-13T15:52:35.106Z,8.87
2018-12-13T15:55:04.464Z,10.03
2018-12-13T15:57:33.747Z,9.67
2018-12-13T16:00:02.971Z,8.20
2018-12-13T16:02:32.214Z,9.50
2018-12-13T16:05:01.400Z,8.83
2018-12-13T16:07:30.541Z,8.80
2018-12-13T16:10:03.805Z,9.00
2018-12-13T16:12:31.474Z,8.43
2018-12-13T16:15:00.498Z,8.13
2018-12-13T16:17:29.506Z,7.70
2018-12-13T16:19:58.620Z,8.40
2018-12-13T16:22:27.747Z,7.60
2018-12-13T16:24:56.861Z,7.80
2018-12-13T16:27:26.367Z,8.77
2018-12-13T16:29:56.481Z,7.10
2018-12-13T16:32:25.588Z,7.03
2018-12-13T16:34:54.706Z,7.13
2018-12-13T16:37:24.038Z,6.80
2018-12-13T16:39:53.188Z,7.20
2018-12-13T16:42:22.267Z,7.90
2018-12-13T16:44:51.396Z,7.70
2018-12-13T16:47:20.607Z,7.47
2018-12-13T16:49:49.727Z,7.90
2018-12-13T16:52:18.829Z,8.57
2018-12-13T16:54:48.467Z,8.37
2018-12-13T16:57:17.688Z,9.33
2018-12-13T16:59:48.074Z,8.67
2018-12-13T17:02:18.408Z,9.20
2018-12-13T17:04:50.272Z,9.13
2018-12-13T17:07:19.587Z,9.70
2018-12-13T17:09:49.058Z,8.87
2018-12-13T17:12:19.521Z,8.87
2018-12-13T17:14:49.024Z,8.30
2018-12-13T17:17:20.326Z,8.47
2018-12-13T17:19:50.993Z,8.13
2018-12-13T17:22:20.976Z,7.73
2018-12-13T17:24:50.746Z,7.97
2018-12-13T17:27:20.586Z,8.47
2018-12-13T17:29:49.645Z,7.60
2018-12-13T17:32:20.366Z,7.67
2018-12-13T17:34:50.350Z,8.00
2018-12-13T17:37:20.825Z,8.20
2018-12-13T17:39:51.986Z,7.13
2018-12-13T17:42:22.071Z,7.07
2018-12-13T17:44:51.835Z,7.30
2018-12-13T17:47:21.405Z,7.03
2018-12-13T17:49:51.362Z,7.80
2018-12-13T17:52:21.115Z,7.97
2018-12-13T17:54:50.928Z,8.33
2018-12-13T17:57:21.159Z,8.97
2018-12-13T17:59:50.450Z,9.83
2018-12-13T18:02:20.331Z,9.53
2018-12-13T18:04:50.188Z,8.93
2018-12-13T18:07:19.984Z,10.00
2018-12-13T18:09:50.619Z,9.20
2018-12-13T18:12:21.611Z,9.50
2018-12-13T18:14:53.611Z,9.30
2018-12-13T18:17:24.506Z,10.57
2018-12-13T18:19:54.980Z,10.70
2018-12-13T18:22:25.054Z,10.80
2018-12-13T18:24:54.243Z,10.63
2018-12-13T18:27:23.360Z,11.43
2018-12-13T18:29:52.501Z,11.20
2018-12-13T18:32:22.487Z,10.63
2018-12-13T18:34:51.652Z,11.27
2018-12-13T18:37:20.780Z,9.77
2018-12-13T18:39:49.906Z,10.60
2018-12-13T18:42:19.939Z,10.87
2018-12-13T18:44:49.000Z,11.30
2018-12-13T18:47:18.252Z,11.30
2018-12-13T18:49:47.314Z,10.43
2018-12-13T18:52:16.463Z,10.23
2018-12-13T18:54:45.858Z,10.27
2018-12-13T18:57:15.075Z,10.87
2018-12-13T18:59:44.203Z,10.97
2018-12-13T19:02:13.409Z,10.50
2018-12-13T19:04:42.727Z,10.43
2018-12-13T19:07:13.478Z,10.80
2018-12-13T19:09:44.353Z,10.17
2018-12-13T19:12:15.518Z,10.70
2018-12-13T19:14:46.641Z,10.23
2018-12-13T19:17:17.198Z,10.57
2018-12-13T19:19:47.856Z,11.20
2018-12-13T19:22:17.340Z,11.33
2018-12-13T19:24:47.049Z,10.37
2018-12-13T19:27:22.685Z,10.90
2018-12-13T19:29:51.990Z,10.27
2018-12-13T19:32:21.181Z,10.53
2018-12-13T19:34:50.964Z,10.87
2018-12-13T19:37:20.111Z,10.93
2018-12-13T19:39:49.281Z,10.47
2018-12-13T19:42:18.372Z,10.53
2018-12-13T19:44:48.771Z,11.33
2018-12-13T19:47:25.464Z,10.70
2018-12-13T19:49:55.277Z,10.83
2018-12-13T19:52:26.504Z,10.50
2018-12-13T19:54:57.676Z,10.30
2018-12-13T19:57:27.543Z,10.57
2018-12-13T19:59:56.910Z,11.10
2018-12-13T20:02:26.120Z,11.67
2018-12-13T20:04:55.261Z,11.23
2018-12-13T20:07:25.913Z,10.23
2018-12-13T20:09:55.067Z,10.83
2018-12-13T20:12:24.176Z,9.97
2018-12-13T20:14:54.251Z,11.13
2018-12-13T20:17:23.400Z,10.93
2018-12-13T20:19:52.715Z,11.43
2018-12-13T20:22:21.864Z,11.47
2018-12-13T20:24:51.058Z,10.67
2018-12-13T20:27:20.705Z,11.33
2018-12-13T20:29:49.875Z,10.73
2018-12-13T20:32:19.329Z,11.40
2018-12-13T20:34:48.440Z,11.80
2018-12-13T20:37:17.519Z,11.33
2018-12-13T20:39:47.319Z,11.47
2018-12-13T20:42:16.403Z,10.53
2018-12-13T20:44:46.323Z,10.10
2018-12-13T20:47:15.502Z,11.67
2018-12-13T20:49:44.629Z,12.60
2018-12-13T20:52:14.123Z,11.43
2018-12-13T20:54:43.235Z,12.33
2018-12-13T20:57:13.145Z,12.20
2018-12-13T20:59:42.255Z,11.50
2018-12-13T21:02:11.862Z,11.03
2018-12-13T21:04:41.112Z,11.33
2018-12-13T21:07:16.822Z,10.60
2018-12-13T21:09:45.922Z,10.50
2018-12-13T21:12:15.033Z,11.37
2018-12-13T21:14:44.392Z,10.53
2018-12-13T21:17:13.610Z,9.53
2018-12-13T21:19:42.784Z,10.00
2018-12-13T21:22:12.016Z,10.23
2018-12-13T21:24:41.217Z,9.63
2018-12-13T21:27:10.452Z,9.60
2018-12-13T21:29:40.460Z,9.67
2018-12-13T21:32:09.537Z,9.43
2018-12-13T21:34:38.733Z,9.27
2018-12-13T21:37:07.801Z,9.80
2018-12-13T21:39:36.932Z,9.33
2018-12-13T21:42:06.588Z,7.93
2018-12-13T21:44:35.645Z,8.60
2018-12-13T21:47:04.779Z,8.57
2018-12-13T21:49:33.996Z,9.30
2018-12-13T21:52:03.068Z,9.17
2018-12-13T21:54:32.209Z,8.10
2018-12-13T21:57:01.375Z,8.30
2018-12-13T21:59:30.453Z,7.47
2018-12-13T22:01:59.514Z,7.63
2018-12-13T22:04:28.564Z,7.40
2018-12-13T22:06:57.778Z,6.97
2018-12-13T22:09:26.843Z,6.23
2018-12-13T22:11:56.564Z,6.37
2018-12-13T22:14:25.672Z,6.97
2018-12-13T22:16:54.837Z,6.37
2018-12-13T22:19:24.384Z,6.00
2018-12-13T22:21:53.548Z,6.63
2018-12-13T22:24:22.710Z,6.07
2018-12-13T22:26:51.765Z,5.70
2018-12-13T22:29:21.590Z,5.47
2018-12-13T22:31:51.608Z,5.53
2018-12-13T22:34:21.331Z,5.63
2018-12-13T22:36:50.808Z,5.60
2018-12-13T22:39:19.957Z,5.47
2018-12-13T22:41:49.612Z,5.57
2018-12-13T22:44:18.899Z,6.30
2018-12-13T22:46:47.985Z,5.73
2018-12-13T22:49:18.221Z,4.80
2018-12-13T22:51:47.289Z,5.43
2018-12-13T22:54:16.572Z,5.33
2018-12-13T22:56:45.716Z,5.40
2018-12-13T22:59:15.374Z,5.17
2018-12-13T23:01:44.720Z,5.33
2018-12-13T23:04:13.856Z,5.57
2018-12-13T23:06:42.956Z,4.77
2018-12-13T23:09:12.047Z,5.33
2018-12-13T23:11:41.310Z,5.53
2018-12-13T23:14:10.607Z,5.37
2018-12-13T23:16:42.285Z,6.17
2018-12-13T23:19:11.367Z,5.80
2018-12-13T23:21:41.636Z,5.67
2018-12-13T23:24:11.006Z,5.67
2018-12-13T23:26:41.512Z,4.80
2018-12-13T23:29:10.664Z,6.00
2018-12-13T23:31:40.025Z,5.23
2018-12-13T23:34:09.160Z,6.23
2018-12-13T23:36:39.184Z,5.77
2018-12-13T23:39:08.852Z,5.23
2018-12-13T23:41:39.551Z,5.30
2018-12-13T23:44:08.856Z,5.23
2018-12-13T23:46:38.030Z,4.90
2018-12-13T23:49:07.133Z,5.37
2018-12-13T23:51:36.306Z,5.77
2018-12-13T23:54:05.713Z,5.70
2018-12-13T23:56:34.800Z,5.63
2018-12-13T23:59:04.156Z,5.40
